sensor_id;sensor_type;location;lat;lon;timestamp;P1;durP1;ratioP1;P2;durP2;ratioP2
30872;SDS011;17579;42.690;2.586;2022-07-10T00:01:07;2.33;;;1.00;;
30872;SDS011;17579;42.690;2.586;2022-07-10T00:03:32;1.20;;;1.10;;
30872;SDS011;17579;42.690;2.586;2022-07-10T00:05:58;1.30;;;1.20;;
30872;SDS011;17579;42.690;2.586;2022-07-10T00:08:23;2.30;;;1.13;;
30872;SDS011;17579;42.690;2.586;2022-07-10T00:10:49;5.30;;;1.10;;
30872;SDS011;17579;42.690;2.586;2022-07-10T00:13:15;1.52;;;1.27;;
30872;SDS011;17579;42.690;2.586;2022-07-10T00:15:40;1.08;;;0.98;;
30872;SDS011;17579;42.690;2.586;2022-07-10T00:18:06;1.27;;;1.17;;
30872;SDS011;17579;42.690;2.586;2022-07-10T00:20:31;1.30;;;1.15;;
30872;SDS011;17579;42.690;2.586;2022-07-10T00:22:57;1.25;;;1.15;;
30872;SDS011;17579;42.690;2.586;2022-07-10T00:25:23;1.20;;;1.08;;
30872;SDS011;17579;42.690;2.586;2022-07-10T00:27:48;2.55;;;1.10;;
30872;SDS011;17579;42.690;2.586;2022-07-10T00:30:14;3.15;;;1.00;;
30872;SDS011;17579;42.690;2.586;2022-07-10T00:32:40;1.15;;;1.05;;
30872;SDS011;17579;42.690;2.586;2022-07-10T00:35:06;1.30;;;1.20;;
30872;SDS011;17579;42.690;2.586;2022-07-10T00:37:32;1.20;;;1.00;;
30872;SDS011;17579;42.690;2.586;2022-07-10T00:39:58;1.33;;;1.10;;
30872;SDS011;17579;42.690;2.586;2022-07-10T00:42:25;1.23;;;0.93;;
30872;SDS011;17579;42.690;2.586;2022-07-10T00:44:50;1.35;;;1.13;;
30872;SDS011;17579;42.690;2.586;2022-07-10T00:47:16;1.13;;;1.02;;
30872;SDS011;17579;42.690;2.586;2022-07-10T00:49:44;1.67;;;1.00;;
30872;SDS011;17579;42.690;2.586;2022-07-10T00:52:12;1.20;;;1.10;;
30872;SDS011;17579;42.690;2.586;2022-07-10T00:54:41;1.10;;;1.00;;
30872;SDS011;17579;42.690;2.586;2022-07-10T00:57:09;1.08;;;1.05;;
30872;SDS011;17579;42.690;2.586;2022-07-10T00:59:35;1.00;;;1.00;;
30872;SDS011;17579;42.690;2.586;2022-07-10T01:02:01;1.10;;;1.10;;
30872;SDS011;17579;42.690;2.586;2022-07-10T01:04:29;1.27;;;1.17;;
30872;SDS011;17579;42.690;2.586;2022-07-10T01:06:55;1.67;;;1.30;;
30872;SDS011;17579;42.690;2.586;2022-07-10T01:09:21;1.27;;;1.13;;
30872;SDS011;17579;42.690;2.586;2022-07-10T01:11:46;2.00;;;1.17;;
30872;SDS011;17579;42.690;2.586;2022-07-10T01:14:12;1.25;;;1.10;;
30872;SDS011;17579;42.690;2.586;2022-07-10T01:16:39;1.30;;;1.20;;
30872;SDS011;17579;42.690;2.586;2022-07-10T01:19:05;1.17;;;1.08;;
30872;SDS011;17579;42.690;2.586;2022-07-10T01:21:32;1.02;;;0.93;;
30872;SDS011;17579;42.690;2.586;2022-07-10T01:23:59;1.33;;;1.17;;
30872;SDS011;17579;42.690;2.586;2022-07-10T01:26:28;1.70;;;1.20;;
30872;SDS011;17579;42.690;2.586;2022-07-10T01:28:54;1.00;;;1.00;;
30872;SDS011;17579;42.690;2.586;2022-07-10T01:31:24;1.40;;;1.30;;
30872;SDS011;17579;42.690;2.586;2022-07-10T01:33:51;1.70;;;1.27;;
30872;SDS011;17579;42.690;2.586;2022-07-10T01:36:17;1.25;;;1.15;;
30872;SDS011;17579;42.690;2.586;2022-07-10T01:38:43;1.20;;;1.10;;
30872;SDS011;17579;42.690;2.586;2022-07-10T01:41:09;0.95;;;0.95;;
30872;SDS011;17579;42.690;2.586;2022-07-10T01:43:35;2.15;;;1.08;;
30872;SDS011;17579;42.690;2.586;2022-07-10T01:46:02;1.02;;;1.02;;
30872;SDS011;17579;42.690;2.586;2022-07-10T01:48:28;1.48;;;1.30;;
30872;SDS011;17579;42.690;2.586;2022-07-10T01:50:54;2.08;;;1.20;;
30872;SDS011;17579;42.690;2.586;2022-07-10T01:53:20;2.40;;;1.20;;
30872;SDS011;17579;42.690;2.586;2022-07-10T01:55:46;1.70;;;1.10;;
30872;SDS011;17579;42.690;2.586;2022-07-10T01:58:12;1.73;;;1.10;;
30872;SDS011;17579;42.690;2.586;2022-07-10T02:00:37;1.05;;;1.00;;
30872;SDS011;17579;42.690;2.586;2022-07-10T02:03:03;1.15;;;1.08;;
30872;SDS011;17579;42.690;2.586;2022-07-10T02:05:40;2.00;;;1.08;;
30872;SDS011;17579;42.690;2.586;2022-07-10T02:08:06;1.20;;;1.10;;
30872;SDS011;17579;42.690;2.586;2022-07-10T02:10:32;3.25;;;1.65;;
30872;SDS011;17579;42.690;2.586;2022-07-10T02:12:57;1.00;;;1.00;;
30872;SDS011;17579;42.690;2.586;2022-07-10T02:15:23;1.63;;;0.98;;
30872;SDS011;17579;42.690;2.586;2022-07-10T02:17:49;2.15;;;1.20;;
30872;SDS011;17579;42.690;2.586;2022-07-10T02:20:15;1.23;;;1.13;;
30872;SDS011;17579;42.690;2.586;2022-07-10T02:22:40;1.20;;;1.10;;
30872;SDS011;17579;42.690;2.586;2022-07-10T02:25:07;1.23;;;1.13;;
30872;SDS011;17579;42.690;2.586;2022-07-10T02:27:33;5.00;;;1.58;;
30872;SDS011;17579;42.690;2.586;2022-07-10T02:29:58;1.60;;;1.33;;
30872;SDS011;17579;42.690;2.586;2022-07-10T02:32:24;1.08;;;1.00;;
30872;SDS011;17579;42.690;2.586;2022-07-10T02:34:50;1.23;;;1.20;;
30872;SDS011;17579;42.690;2.586;2022-07-10T02:37:15;1.17;;;1.08;;
30872;SDS011;17579;42.690;2.586;2022-07-10T02:39:41;2.65;;;1.08;;
30872;SDS011;17579;42.690;2.586;2022-07-10T02:42:06;1.20;;;1.10;;
30872;SDS011;17579;42.690;2.586;2022-07-10T02:44:32;1.55;;;1.30;;
30872;SDS011;17579;42.690;2.586;2022-07-10T02:46:58;1.08;;;1.00;;
30872;SDS011;17579;42.690;2.586;2022-07-10T02:49:24;1.30;;;1.20;;
30872;SDS011;17579;42.690;2.586;2022-07-10T02:51:49;1.38;;;1.27;;
30872;SDS011;17579;42.690;2.586;2022-07-10T02:54:15;1.23;;;1.10;;
30872;SDS011;17579;42.690;2.586;2022-07-10T02:56:41;1.65;;;1.25;;
30872;SDS011;17579;42.690;2.586;2022-07-10T02:59:07;1.13;;;1.00;;
30872;SDS011;17579;42.690;2.586;2022-07-10T03:01:32;1.23;;;1.10;;
30872;SDS011;17579;42.690;2.586;2022-07-10T03:03:58;2.17;;;1.23;;
30872;SDS011;17579;42.690;2.586;2022-07-10T03:06:24;1.55;;;1.38;;
30872;SDS011;17579;42.690;2.586;2022-07-10T03:08:49;1.50;;;1.15;;
30872;SDS011;17579;42.690;2.586;2022-07-10T03:11:15;1.25;;;1.20;;
30872;SDS011;17579;42.690;2.586;2022-07-10T03:13:40;1.02;;;1.02;;
30872;SDS011;17579;42.690;2.586;2022-07-10T03:16:06;2.22;;;1.00;;
30872;SDS011;17579;42.690;2.586;2022-07-10T03:18:32;1.88;;;1.42;;
30872;SDS011;17579;42.690;2.586;2022-07-10T03:20:57;1.45;;;1.10;;
30872;SDS011;17579;42.690;2.586;2022-07-10T03:23:23;2.55;;;1.40;;
30872;SDS011;17579;42.690;2.586;2022-07-10T03:25:48;1.50;;;1.40;;
30872;SDS011;17579;42.690;2.586;2022-07-10T03:28:14;1.20;;;1.10;;
30872;SDS011;17579;42.690;2.586;2022-07-10T03:30:39;1.30;;;1.20;;
30872;SDS011;17579;42.690;2.586;2022-07-10T03:33:05;1.25;;;1.20;;
30872;SDS011;17579;42.690;2.586;2022-07-10T03:35:31;1.33;;;1.10;;
30872;SDS011;17579;42.690;2.586;2022-07-10T03:37:56;1.48;;;1.15;;
30872;SDS011;17579;42.690;2.586;2022-07-10T03:40:22;1.38;;;1.27;;
30872;SDS011;17579;42.690;2.586;2022-07-10T03:42:48;1.30;;;1.20;;
30872;SDS011;17579;42.690;2.586;2022-07-10T03:45:13;1.15;;;0.95;;
30872;SDS011;17579;42.690;2.586;2022-07-10T03:47:39;1.20;;;1.10;;
30872;SDS011;17579;42.690;2.586;2022-07-10T03:50:05;2.30;;;1.30;;
30872;SDS011;17579;42.690;2.586;2022-07-10T03:52:31;1.45;;;1.10;;
30872;SDS011;17579;42.690;2.586;2022-07-10T03:54:56;2.28;;;1.20;;
30872;SDS011;17579;42.690;2.586;2022-07-10T03:57:22;1.40;;;1.30;;
30872;SDS011;17579;42.690;2.586;2022-07-10T03:59:59;2.30;;;1.23;;
30872;SDS011;17579;42.690;2.586;2022-07-10T04:02:25;1.33;;;0.90;;
30872;SDS011;17579;42.690;2.586;2022-07-10T04:04:51;1.50;;;1.40;;
30872;SDS011;17579;42.690;2.586;2022-07-10T04:07:16;1.02;;;1.02;;
30872;SDS011;17579;42.690;2.586;2022-07-10T04:09:42;4.72;;;1.38;;
30872;SDS011;17579;42.690;2.586;2022-07-10T04:12:07;0.80;;;0.80;;
30872;SDS011;17579;42.690;2.586;2022-07-10T04:14:33;2.45;;;1.17;;
30872;SDS011;17579;42.690;2.586;2022-07-10T04:16:59;1.58;;;1.20;;
30872;SDS011;17579;42.690;2.586;2022-07-10T04:19:24;1.25;;;1.15;;
30872;SDS011;17579;42.690;2.586;2022-07-10T04:21:50;1.70;;;1.08;;
30872;SDS011;17579;42.690;2.586;2022-07-10T04:24:15;1.58;;;1.00;;
30872;SDS011;17579;42.690;2.586;2022-07-10T04:26:41;2.00;;;1.00;;
30872;SDS011;17579;42.690;2.586;2022-07-10T04:29:08;0.95;;;0.95;;
30872;SDS011;17579;42.690;2.586;2022-07-10T04:31:33;1.45;;;1.23;;
30872;SDS011;17579;42.690;2.586;2022-07-10T04:33:59;2.33;;;1.23;;
30872;SDS011;17579;42.690;2.586;2022-07-10T04:36:24;1.27;;;1.10;;
30872;SDS011;17579;42.690;2.586;2022-07-10T04:38:50;1.60;;;0.90;;
30872;SDS011;17579;42.690;2.586;2022-07-10T04:41:15;2.95;;;1.10;;
30872;SDS011;17579;42.690;2.586;2022-07-10T04:43:41;1.95;;;1.30;;
30872;SDS011;17579;42.690;2.586;2022-07-10T04:46:07;1.35;;;1.20;;
30872;SDS011;17579;42.690;2.586;2022-07-10T04:48:32;1.25;;;1.10;;
30872;SDS011;17579;42.690;2.586;2022-07-10T04:50:58;1.63;;;1.10;;
30872;SDS011;17579;42.690;2.586;2022-07-10T04:53:26;1.60;;;1.20;;
30872;SDS011;17579;42.690;2.586;2022-07-10T04:55:52;1.52;;;1.30;;
30872;SDS011;17579;42.690;2.586;2022-07-10T04:58:17;1.13;;;1.00;;
30872;SDS011;17579;42.690;2.586;2022-07-10T05:00:43;1.33;;;1.23;;
30872;SDS011;17579;42.690;2.586;2022-07-10T05:03:08;1.20;;;1.10;;
30872;SDS011;17579;42.690;2.586;2022-07-10T05:05:34;1.17;;;1.08;;
30872;SDS011;17579;42.690;2.586;2022-07-10T05:08:00;1.90;;;1.20;;
30872;SDS011;17579;42.690;2.586;2022-07-10T05:10:26;2.60;;;1.17;;
30872;SDS011;17579;42.690;2.586;2022-07-10T05:12:52;1.67;;;1.20;;
30872;SDS011;17579;42.690;2.586;2022-07-10T05:15:18;1.50;;;1.10;;
30872;SDS011;17579;42.690;2.586;2022-07-10T05:17:43;1.50;;;1.40;;
30872;SDS011;17579;42.690;2.586;2022-07-10T05:20:09;1.25;;;1.15;;
30872;SDS011;17579;42.690;2.586;2022-07-10T05:22:35;1.20;;;1.10;;
30872;SDS011;17579;42.690;2.586;2022-07-10T05:25:01;1.38;;;1.10;;
30872;SDS011;17579;42.690;2.586;2022-07-10T05:27:27;0.95;;;0.93;;
30872;SDS011;17579;42.690;2.586;2022-07-10T05:29:52;1.30;;;1.20;;
30872;SDS011;17579;42.690;2.586;2022-07-10T05:32:18;1.33;;;1.10;;
30872;SDS011;17579;42.690;2.586;2022-07-10T05:34:43;1.25;;;1.15;;
30872;SDS011;17579;42.690;2.586;2022-07-10T05:37:09;2.17;;;1.10;;
30872;SDS011;17579;42.690;2.586;2022-07-10T05:39:35;1.15;;;1.05;;
30872;SDS011;17579;42.690;2.586;2022-07-10T05:42:00;1.98;;;0.90;;
30872;SDS011;17579;42.690;2.586;2022-07-10T05:44:26;1.23;;;1.10;;
30872;SDS011;17579;42.690;2.586;2022-07-10T05:46:52;1.10;;;1.00;;
30872;SDS011;17579;42.690;2.586;2022-07-10T05:49:17;4.35;;;1.10;;
30872;SDS011;17579;42.690;2.586;2022-07-10T05:51:43;1.20;;;1.10;;
30872;SDS011;17579;42.690;2.586;2022-07-10T05:54:09;1.35;;;1.13;;
30872;SDS011;17579;42.690;2.586;2022-07-10T05:56:34;1.00;;;1.00;;
30872;SDS011;17579;42.690;2.586;2022-07-10T05:59:00;1.13;;;1.13;;
30872;SDS011;17579;42.690;2.586;2022-07-10T06:01:25;1.23;;;1.23;;
30872;SDS011;17579;42.690;2.586;2022-07-10T06:03:51;1.63;;;1.08;;
30872;SDS011;17579;42.690;2.586;2022-07-10T06:06:18;1.40;;;1.30;;
30872;SDS011;17579;42.690;2.586;2022-07-10T06:08:44;1.30;;;1.23;;
30872;SDS011;17579;42.690;2.586;2022-07-10T06:11:10;1.17;;;1.17;;
30872;SDS011;17579;42.690;2.586;2022-07-10T06:13:37;1.00;;;1.00;;
30872;SDS011;17579;42.690;2.586;2022-07-10T06:16:03;1.73;;;1.25;;
30872;SDS011;17579;42.690;2.586;2022-07-10T06:18:30;1.60;;;1.50;;
30872;SDS011;17579;42.690;2.586;2022-07-10T06:20:57;1.48;;;1.38;;
30872;SDS011;17579;42.690;2.586;2022-07-10T06:23:22;1.58;;;1.48;;
30872;SDS011;17579;42.690;2.586;2022-07-10T06:25:48;1.35;;;1.25;;
30872;SDS011;17579;42.690;2.586;2022-07-10T06:28:17;3.90;;;1.20;;
30872;SDS011;17579;42.690;2.586;2022-07-10T06:30:44;1.63;;;1.40;;
30872;SDS011;17579;42.690;2.586;2022-07-10T06:33:13;1.17;;;1.17;;
30872;SDS011;17579;42.690;2.586;2022-07-10T06:35:39;2.75;;;1.25;;
30872;SDS011;17579;42.690;2.586;2022-07-10T06:38:05;1.35;;;1.25;;
30872;SDS011;17579;42.690;2.586;2022-07-10T06:40:30;2.97;;;1.90;;
30872;SDS011;17579;42.690;2.586;2022-07-10T06:43:02;1.50;;;1.40;;
30872;SDS011;17579;42.690;2.586;2022-07-10T06:45:28;1.67;;;1.35;;
30872;SDS011;17579;42.690;2.586;2022-07-10T06:47:53;1.60;;;1.50;;
30872;SDS011;17579;42.690;2.586;2022-07-10T06:50:30;1.60;;;1.50;;
30872;SDS011;17579;42.690;2.586;2022-07-10T06:52:57;2.05;;;1.85;;
30872;SDS011;17579;42.690;2.586;2022-07-10T06:55:24;1.33;;;1.30;;
30872;SDS011;17579;42.690;2.586;2022-07-10T06:57:51;1.45;;;1.23;;
30872;SDS011;17579;42.690;2.586;2022-07-10T07:00:17;1.77;;;1.40;;
30872;SDS011;17579;42.690;2.586;2022-07-10T07:02:42;2.70;;;1.70;;
30872;SDS011;17579;42.690;2.586;2022-07-10T07:05:09;1.60;;;1.50;;
30872;SDS011;17579;42.690;2.586;2022-07-10T07:07:35;1.67;;;1.40;;
30872;SDS011;17579;42.690;2.586;2022-07-10T07:10:01;1.60;;;1.50;;
30872;SDS011;17579;42.690;2.586;2022-07-10T07:12:28;3.45;;;1.35;;
30872;SDS011;17579;42.690;2.586;2022-07-10T07:14:53;1.60;;;1.50;;
30872;SDS011;17579;42.690;2.586;2022-07-10T07:17:19;1.58;;;1.48;;
30872;SDS011;17579;42.690;2.586;2022-07-10T07:19:50;1.92;;;1.77;;
30872;SDS011;17579;42.690;2.586;2022-07-10T07:22:29;2.38;;;1.77;;
30872;SDS011;17579;42.690;2.586;2022-07-10T07:25:07;1.67;;;1.58;;
30872;SDS011;17579;42.690;2.586;2022-07-10T07:27:34;2.50;;;1.85;;
30872;SDS011;17579;42.690;2.586;2022-07-10T07:30:11;1.90;;;1.75;;
30872;SDS011;17579;42.690;2.586;2022-07-10T07:32:41;1.75;;;1.65;;
30872;SDS011;17579;42.690;2.586;2022-07-10T07:35:09;1.55;;;1.45;;
30872;SDS011;17579;42.690;2.586;2022-07-10T07:40:03;2.00;;;1.70;;
30872;SDS011;17579;42.690;2.586;2022-07-10T07:42:30;2.15;;;1.95;;
30872;SDS011;17579;42.690;2.586;2022-07-10T07:44:55;2.13;;;1.80;;
30872;SDS011;17579;42.690;2.586;2022-07-10T07:47:22;1.73;;;1.63;;
30872;SDS011;17579;42.690;2.586;2022-07-10T07:49:48;1.70;;;1.60;;
30872;SDS011;17579;42.690;2.586;2022-07-10T07:52:14;3.17;;;1.65;;
30872;SDS011;17579;42.690;2.586;2022-07-10T07:54:39;3.25;;;1.92;;
30872;SDS011;17579;42.690;2.586;2022-07-10T07:57:05;2.05;;;1.65;;
30872;SDS011;17579;42.690;2.586;2022-07-10T07:59:31;1.98;;;1.63;;
30872;SDS011;17579;42.690;2.586;2022-07-10T08:01:57;1.75;;;1.65;;
30872;SDS011;17579;42.690;2.586;2022-07-10T08:04:23;2.13;;;1.88;;
30872;SDS011;17579;42.690;2.586;2022-07-10T08:06:48;1.95;;;1.85;;
30872;SDS011;17579;42.690;2.586;2022-07-10T08:09:17;2.83;;;1.98;;
30872;SDS011;17579;42.690;2.586;2022-07-10T08:11:44;1.92;;;1.80;;
30872;SDS011;17579;42.690;2.586;2022-07-10T08:14:09;2.72;;;1.77;;
30872;SDS011;17579;42.690;2.586;2022-07-10T08:16:35;1.60;;;1.50;;
30872;SDS011;17579;42.690;2.586;2022-07-10T08:19:00;1.80;;;1.70;;
30872;SDS011;17579;42.690;2.586;2022-07-10T08:21:26;2.03;;;1.50;;
30872;SDS011;17579;42.690;2.586;2022-07-10T08:23:52;2.03;;;1.70;;
30872;SDS011;17579;42.690;2.586;2022-07-10T08:26:18;3.35;;;1.80;;
30872;SDS011;17579;42.690;2.586;2022-07-10T08:28:44;2.00;;;1.85;;
30872;SDS011;17579;42.690;2.586;2022-07-10T08:31:10;1.80;;;1.70;;
30872;SDS011;17579;42.690;2.586;2022-07-10T08:33:36;1.73;;;1.63;;
30872;SDS011;17579;42.690;2.586;2022-07-10T08:36:01;1.85;;;1.75;;
30872;SDS011;17579;42.690;2.586;2022-07-10T08:38:27;2.35;;;1.90;;
30872;SDS011;17579;42.690;2.586;2022-07-10T08:40:53;1.58;;;1.48;;
30872;SDS011;17579;42.690;2.586;2022-07-10T08:43:23;1.88;;;1.77;;
30872;SDS011;17579;42.690;2.586;2022-07-10T08:45:50;1.90;;;1.80;;
30872;SDS011;17579;42.690;2.586;2022-07-10T08:48:19;1.67;;;1.58;;
30872;SDS011;17579;42.690;2.586;2022-07-10T08:50:47;2.53;;;1.75;;
30872;SDS011;17579;42.690;2.586;2022-07-10T08:53:29;1.85;;;1.45;;
30872;SDS011;17579;42.690;2.586;2022-07-10T08:55:56;2.10;;;2.00;;
30872;SDS011;17579;42.690;2.586;2022-07-10T08:58:22;1.60;;;1.50;;
30872;SDS011;17579;42.690;2.586;2022-07-10T09:00:48;1.60;;;1.50;;
30872;SDS011;17579;42.690;2.586;2022-07-10T09:03:14;2.03;;;1.92;;
30872;SDS011;17579;42.690;2.586;2022-07-10T09:05:40;2.00;;;1.83;;
30872;SDS011;17579;42.690;2.586;2022-07-10T09:11:01;1.60;;;1.50;;
30872;SDS011;17579;42.690;2.586;2022-07-10T09:13:48;1.95;;;1.58;;
30872;SDS011;17579;42.690;2.586;2022-07-10T09:18:51;1.63;;;1.52;;
30872;SDS011;17579;42.690;2.586;2022-07-10T09:21:17;2.53;;;2.10;;
30872;SDS011;17579;42.690;2.586;2022-07-10T09:23:43;1.80;;;1.70;;
30872;SDS011;17579;42.690;2.586;2022-07-10T09:26:08;1.55;;;1.45;;
30872;SDS011;17579;42.690;2.586;2022-07-10T09:28:34;1.90;;;1.80;;
30872;SDS011;17579;42.690;2.586;2022-07-10T09:30:59;1.92;;;1.65;;
30872;SDS011;17579;42.690;2.586;2022-07-10T09:33:25;1.63;;;1.52;;
30872;SDS011;17579;42.690;2.586;2022-07-10T09:41:14;1.65;;;1.55;;
30872;SDS011;17579;42.690;2.586;2022-07-10T09:46:21;1.65;;;1.55;;
30872;SDS011;17579;42.690;2.586;2022-07-10T09:49:00;1.70;;;1.60;;
30872;SDS011;17579;42.690;2.586;2022-07-10T09:51:30;1.75;;;1.50;;
30872;SDS011;17579;42.690;2.586;2022-07-10T09:53:59;1.60;;;1.55;;
30872;SDS011;17579;42.690;2.586;2022-07-10T09:56:27;1.70;;;1.60;;
30872;SDS011;17579;42.690;2.586;2022-07-10T09:58:59;1.90;;;1.80;;
30872;SDS011;17579;42.690;2.586;2022-07-10T10:01:25;1.98;;;1.88;;
30872;SDS011;17579;42.690;2.586;2022-07-10T10:03:53;2.03;;;1.92;;
30872;SDS011;17579;42.690;2.586;2022-07-10T10:06:21;1.80;;;1.70;;
30872;SDS011;17579;42.690;2.586;2022-07-10T10:08:56;1.77;;;1.67;;
30872;SDS011;17579;42.690;2.586;2022-07-10T10:11:27;1.75;;;1.65;;
30872;SDS011;17579;42.690;2.586;2022-07-10T10:13:55;1.75;;;1.67;;
30872;SDS011;17579;42.690;2.586;2022-07-10T10:16:21;1.63;;;1.52;;
30872;SDS011;17579;42.690;2.586;2022-07-10T10:18:48;1.98;;;1.77;;
30872;SDS011;17579;42.690;2.586;2022-07-10T10:21:28;2.10;;;1.90;;
30872;SDS011;17579;42.690;2.586;2022-07-10T10:23:54;1.90;;;1.80;;
30872;SDS011;17579;42.690;2.586;2022-07-10T10:26:21;1.90;;;1.80;;
30872;SDS011;17579;42.690;2.586;2022-07-10T10:28:48;4.30;;;2.03;;
30872;SDS011;17579;42.690;2.586;2022-07-10T10:31:22;1.75;;;1.65;;
30872;SDS011;17579;42.690;2.586;2022-07-10T10:33:51;1.80;;;1.70;;
30872;SDS011;17579;42.690;2.586;2022-07-10T10:41:44;2.75;;;1.90;;
30872;SDS011;17579;42.690;2.586;2022-07-10T10:44:18;2.35;;;2.15;;
30872;SDS011;17579;42.690;2.586;2022-07-10T10:49:22;3.25;;;2.90;;
30872;SDS011;17579;42.690;2.586;2022-07-10T10:51:56;2.28;;;2.17;;
30872;SDS011;17579;42.690;2.586;2022-07-10T10:54:25;2.08;;;1.95;;
30872;SDS011;17579;42.690;2.586;2022-07-10T10:59:50;2.22;;;2.00;;
30872;SDS011;17579;42.690;2.586;2022-07-10T11:13:11;2.65;;;2.45;;
30872;SDS011;17579;42.690;2.586;2022-07-10T11:15:39;5.57;;;2.42;;
30872;SDS011;17579;42.690;2.586;2022-07-10T11:20:34;3.05;;;2.20;;
30872;SDS011;17579;42.690;2.586;2022-07-10T11:25:51;2.72;;;2.53;;
30872;SDS011;17579;42.690;2.586;2022-07-10T11:28:38;3.13;;;2.83;;
30872;SDS011;17579;42.690;2.586;2022-07-10T11:31:12;3.13;;;2.50;;
30872;SDS011;17579;42.690;2.586;2022-07-10T11:33:44;2.97;;;2.72;;
30872;SDS011;17579;42.690;2.586;2022-07-10T11:36:13;3.20;;;2.90;;
30872;SDS011;17579;42.690;2.586;2022-07-10T11:38:41;2.88;;;2.67;;
30872;SDS011;17579;42.690;2.586;2022-07-10T11:46:15;3.45;;;2.97;;
30872;SDS011;17579;42.690;2.586;2022-07-10T11:48:41;2.90;;;2.65;;
30872;SDS011;17579;42.690;2.586;2022-07-10T11:51:17;2.65;;;2.45;;
30872;SDS011;17579;42.690;2.586;2022-07-10T11:54:03;2.75;;;2.47;;
30872;SDS011;17579;42.690;2.586;2022-07-10T11:56:34;2.40;;;2.30;;
30872;SDS011;17579;42.690;2.586;2022-07-10T11:59:05;2.53;;;2.42;;
30872;SDS011;17579;42.690;2.586;2022-07-10T12:01:43;3.58;;;2.60;;
30872;SDS011;17579;42.690;2.586;2022-07-10T12:04:10;2.92;;;2.72;;
30872;SDS011;17579;42.690;2.586;2022-07-10T12:06:37;2.80;;;2.60;;
30872;SDS011;17579;42.690;2.586;2022-07-10T12:09:11;4.22;;;2.70;;
30872;SDS011;17579;42.690;2.586;2022-07-10T12:11:38;2.90;;;2.70;;
30872;SDS011;17579;42.690;2.586;2022-07-10T12:16:45;2.60;;;2.40;;
30872;SDS011;17579;42.690;2.586;2022-07-10T12:19:13;2.80;;;2.60;;
30872;SDS011;17579;42.690;2.586;2022-07-10T12:21:40;3.08;;;2.78;;
30872;SDS011;17579;42.690;2.586;2022-07-10T12:24:07;3.58;;;2.78;;
30872;SDS011;17579;42.690;2.586;2022-07-10T12:26:37;2.63;;;2.45;;
30872;SDS011;17579;42.690;2.586;2022-07-10T12:29:04;2.75;;;2.55;;
30872;SDS011;17579;42.690;2.586;2022-07-10T12:31:33;2.72;;;2.53;;
30872;SDS011;17579;42.690;2.586;2022-07-10T12:34:03;3.38;;;3.17;;
30872;SDS011;17579;42.690;2.586;2022-07-10T12:39:09;2.88;;;2.70;;
30872;SDS011;17579;42.690;2.586;2022-07-10T12:41:35;2.60;;;2.50;;
30872;SDS011;17579;42.690;2.586;2022-07-10T12:47:08;2.88;;;2.65;;
30872;SDS011;17579;42.690;2.586;2022-07-10T12:52:26;3.05;;;2.80;;
30872;SDS011;17579;42.690;2.586;2022-07-10T12:57:48;2.63;;;2.42;;
30872;SDS011;17579;42.690;2.586;2022-07-10T13:00:14;3.67;;;2.53;;
30872;SDS011;17579;42.690;2.586;2022-07-10T13:02:44;2.90;;;2.17;;
30872;SDS011;17579;42.690;2.586;2022-07-10T13:10:42;2.95;;;2.75;;
30872;SDS011;17579;42.690;2.586;2022-07-10T13:13:09;5.13;;;2.55;;
30872;SDS011;17579;42.690;2.586;2022-07-10T13:15:35;2.50;;;2.40;;
30872;SDS011;17579;42.690;2.586;2022-07-10T13:18:12;2.55;;;2.35;;
30872;SDS011;17579;42.690;2.586;2022-07-10T13:20:43;2.63;;;2.42;;
30872;SDS011;17579;42.690;2.586;2022-07-10T13:23:09;2.80;;;2.60;;
30872;SDS011;17579;42.690;2.586;2022-07-10T13:25:36;3.00;;;2.33;;
30872;SDS011;17579;42.690;2.586;2022-07-10T13:28:03;2.15;;;2.05;;
30872;SDS011;17579;42.690;2.586;2022-07-10T13:30:30;2.55;;;2.35;;
30872;SDS011;17579;42.690;2.586;2022-07-10T13:32:56;2.92;;;2.25;;
30872;SDS011;17579;42.690;2.586;2022-07-10T13:35:22;3.42;;;2.60;;
30872;SDS011;17579;42.690;2.586;2022-07-10T13:37:48;2.60;;;2.40;;
30872;SDS011;17579;42.690;2.586;2022-07-10T13:40:14;2.10;;;2.00;;
30872;SDS011;17579;42.690;2.586;2022-07-10T13:42:41;2.50;;;2.30;;
30872;SDS011;17579;42.690;2.586;2022-07-10T13:45:07;2.38;;;2.28;;
30872;SDS011;17579;42.690;2.586;2022-07-10T13:47:33;3.63;;;2.50;;
30872;SDS011;17579;42.690;2.586;2022-07-10T13:49:59;2.20;;;2.10;;
30872;SDS011;17579;42.690;2.586;2022-07-10T13:52:25;2.30;;;2.20;;
30872;SDS011;17579;42.690;2.586;2022-07-10T13:54:51;2.70;;;2.60;;
30872;SDS011;17579;42.690;2.586;2022-07-10T13:57:16;2.50;;;2.30;;
30872;SDS011;17579;42.690;2.586;2022-07-10T13:59:42;2.35;;;2.25;;
30872;SDS011;17579;42.690;2.586;2022-07-10T14:02:08;2.47;;;2.38;;
30872;SDS011;17579;42.690;2.586;2022-07-10T14:04:33;2.88;;;2.60;;
30872;SDS011;17579;42.690;2.586;2022-07-10T14:06:59;2.60;;;2.40;;
30872;SDS011;17579;42.690;2.586;2022-07-10T14:09:25;2.53;;;2.33;;
30872;SDS011;17579;42.690;2.586;2022-07-10T14:11:51;3.28;;;2.65;;
30872;SDS011;17579;42.690;2.586;2022-07-10T14:14:17;2.60;;;2.40;;
30872;SDS011;17579;42.690;2.586;2022-07-10T14:16:42;2.28;;;2.10;;
30872;SDS011;17579;42.690;2.586;2022-07-10T14:19:08;2.20;;;2.10;;
30872;SDS011;17579;42.690;2.586;2022-07-10T14:21:34;3.25;;;2.33;;
30872;SDS011;17579;42.690;2.586;2022-07-10T14:24:01;2.45;;;2.25;;
30872;SDS011;17579;42.690;2.586;2022-07-10T14:26:28;2.08;;;1.98;;
30872;SDS011;17579;42.690;2.586;2022-07-10T14:28:54;2.20;;;2.10;;
30872;SDS011;17579;42.690;2.586;2022-07-10T14:31:20;3.10;;;2.33;;
30872;SDS011;17579;42.690;2.586;2022-07-10T14:33:46;2.30;;;2.20;;
30872;SDS011;17579;42.690;2.586;2022-07-10T14:36:12;2.17;;;2.08;;
30872;SDS011;17579;42.690;2.586;2022-07-10T14:38:37;2.53;;;2.17;;
30872;SDS011;17579;42.690;2.586;2022-07-10T14:41:03;2.50;;;2.30;;
30872;SDS011;17579;42.690;2.586;2022-07-10T14:43:31;2.08;;;1.85;;
30872;SDS011;17579;42.690;2.586;2022-07-10T14:45:59;3.83;;;2.40;;
30872;SDS011;17579;42.690;2.586;2022-07-10T14:48:29;2.50;;;2.30;;
30872;SDS011;17579;42.690;2.586;2022-07-10T14:50:55;2.60;;;2.20;;
30872;SDS011;17579;42.690;2.586;2022-07-10T14:53:22;3.65;;;2.25;;
30872;SDS011;17579;42.690;2.586;2022-07-10T14:55:48;2.40;;;2.25;;
30872;SDS011;17579;42.690;2.586;2022-07-10T14:58:14;2.33;;;2.15;;
30872;SDS011;17579;42.690;2.586;2022-07-10T15:00:40;2.25;;;2.15;;
30872;SDS011;17579;42.690;2.586;2022-07-10T15:03:06;2.20;;;2.10;;
30872;SDS011;17579;42.690;2.586;2022-07-10T15:05:32;4.78;;;2.28;;
30872;SDS011;17579;42.690;2.586;2022-07-10T15:07:59;2.50;;;2.35;;
30872;SDS011;17579;42.690;2.586;2022-07-10T15:10:26;2.47;;;2.30;;
30872;SDS011;17579;42.690;2.586;2022-07-10T15:12:51;4.22;;;2.33;;
30872;SDS011;17579;42.690;2.586;2022-07-10T15:15:17;2.00;;;1.90;;
30872;SDS011;17579;42.690;2.586;2022-07-10T15:17:44;2.08;;;1.98;;
30872;SDS011;17579;42.690;2.586;2022-07-10T15:20:10;3.05;;;1.90;;
30872;SDS011;17579;42.690;2.586;2022-07-10T15:22:37;2.20;;;2.10;;
30872;SDS011;17579;42.690;2.586;2022-07-10T15:25:03;2.17;;;2.08;;
30872;SDS011;17579;42.690;2.586;2022-07-10T15:27:30;2.03;;;1.92;;
30872;SDS011;17579;42.690;2.586;2022-07-10T15:29:56;2.40;;;2.20;;
30872;SDS011;17579;42.690;2.586;2022-07-10T15:32:21;2.20;;;2.05;;
30872;SDS011;17579;42.690;2.586;2022-07-10T15:34:48;2.53;;;2.33;;
30872;SDS011;17579;42.690;2.586;2022-07-10T15:37:14;2.20;;;2.05;;
30872;SDS011;17579;42.690;2.586;2022-07-10T15:39:41;2.00;;;1.88;;
30872;SDS011;17579;42.690;2.586;2022-07-10T15:42:10;2.60;;;1.83;;
30872;SDS011;17579;42.690;2.586;2022-07-10T15:44:36;2.13;;;2.03;;
30872;SDS011;17579;42.690;2.586;2022-07-10T15:47:03;1.90;;;1.80;;
30872;SDS011;17579;42.690;2.586;2022-07-10T15:49:29;2.38;;;2.22;;
30872;SDS011;17579;42.690;2.586;2022-07-10T15:51:55;2.05;;;1.95;;
30872;SDS011;17579;42.690;2.586;2022-07-10T15:54:21;2.65;;;2.05;;